Terminal Aerodrome Forecast
Issued by NWS Pueblo, CO

Home | Current Version | Previous Version | Text Only | Print | Product List | Glossary On
Versions: 1 2 3 4 5 6 7 8 9 10 11 12 13 14 15 16 17 18 19 20 21 22 23 24 25 26
000
FTUS45 KPUB 272328
TAFALS
TAF
KALS 272328Z 2800/2824 27020G30KT P6SM VCTS SCT050CB BKN100
     FM280100 30014KT P6SM SCT080
     FM280300 30007KT P6SM SCT100
     FM280700 25007KT P6SM SCT250
     FM281600 26012KT P6SM SCT250
     FM282100 25015G25KT P6SM SCT100 BKN250=

USA.gov is the U.S. government's official web portal to all federal, state and local government web resources and services.